sensor_id;sensor_type;location;lat;lon;timestamp;P1;durP1;ratioP1;P2;durP2;ratioP2
71965;SDS011;59836;52.132;5.442;2024-03-25T00:01:32;7.60;;;1.60;;
71965;SDS011;59836;52.132;5.442;2024-03-25T00:03:58;9.65;;;1.30;;
71965;SDS011;59836;52.132;5.442;2024-03-25T00:06:23;6.47;;;1.00;;
71965;SDS011;59836;52.132;5.442;2024-03-25T00:08:49;8.75;;;1.30;;
71965;SDS011;59836;52.132;5.442;2024-03-25T00:11:15;10.57;;;1.33;;
71965;SDS011;59836;52.132;5.442;2024-03-25T00:13:40;3.45;;;1.15;;
71965;SDS011;59836;52.132;5.442;2024-03-25T00:16:06;9.80;;;0.77;;
71965;SDS011;59836;52.132;5.442;2024-03-25T00:18:32;4.50;;;0.80;;
71965;SDS011;59836;52.132;5.442;2024-03-25T00:20:58;7.15;;;1.50;;
71965;SDS011;59836;52.132;5.442;2024-03-25T00:23:23;4.30;;;1.00;;
71965;SDS011;59836;52.132;5.442;2024-03-25T00:25:49;4.15;;;1.45;;
71965;SDS011;59836;52.132;5.442;2024-03-25T00:28:15;12.83;;;1.20;;
71965;SDS011;59836;52.132;5.442;2024-03-25T00:30:41;8.27;;;0.88;;
71965;SDS011;59836;52.132;5.442;2024-03-25T00:33:06;7.17;;;1.47;;
71965;SDS011;59836;52.132;5.442;2024-03-25T00:35:35;8.60;;;0.90;;
71965;SDS011;59836;52.132;5.442;2024-03-25T00:38:00;9.10;;;1.37;;
71965;SDS011;59836;52.132;5.442;2024-03-25T00:40:26;8.32;;;0.88;;
71965;SDS011;59836;52.132;5.442;2024-03-25T00:42:52;5.83;;;1.23;;
71965;SDS011;59836;52.132;5.442;2024-03-25T00:45:17;9.57;;;1.23;;
71965;SDS011;59836;52.132;5.442;2024-03-25T00:47:43;12.27;;;1.53;;
71965;SDS011;59836;52.132;5.442;2024-03-25T00:50:09;8.73;;;1.20;;
71965;SDS011;59836;52.132;5.442;2024-03-25T00:52:35;6.80;;;1.13;;
71965;SDS011;59836;52.132;5.442;2024-03-25T00:55:01;5.45;;;1.08;;
71965;SDS011;59836;52.132;5.442;2024-03-25T00:57:26;9.68;;;1.70;;
71965;SDS011;59836;52.132;5.442;2024-03-25T00:59:52;7.47;;;1.23;;
71965;SDS011;59836;52.132;5.442;2024-03-25T01:02:18;8.30;;;1.25;;
71965;SDS011;59836;52.132;5.442;2024-03-25T01:04:43;10.67;;;1.47;;
71965;SDS011;59836;52.132;5.442;2024-03-25T01:07:09;6.23;;;1.17;;
71965;SDS011;59836;52.132;5.442;2024-03-25T01:09:35;7.43;;;0.98;;
71965;SDS011;59836;52.132;5.442;2024-03-25T01:12:00;6.90;;;1.00;;
71965;SDS011;59836;52.132;5.442;2024-03-25T01:14:26;7.93;;;0.75;;
71965;SDS011;59836;52.132;5.442;2024-03-25T01:16:52;9.37;;;1.00;;
71965;SDS011;59836;52.132;5.442;2024-03-25T01:19:17;10.02;;;1.38;;
71965;SDS011;59836;52.132;5.442;2024-03-25T01:21:43;3.42;;;1.00;;
71965;SDS011;59836;52.132;5.442;2024-03-25T01:24:09;8.88;;;1.20;;
71965;SDS011;59836;52.132;5.442;2024-03-25T01:26:35;9.80;;;1.20;;
71965;SDS011;59836;52.132;5.442;2024-03-25T01:29:01;12.25;;;1.15;;
71965;SDS011;59836;52.132;5.442;2024-03-25T01:31:27;4.18;;;1.10;;
71965;SDS011;59836;52.132;5.442;2024-03-25T01:33:53;5.07;;;0.80;;
71965;SDS011;59836;52.132;5.442;2024-03-25T01:36:18;8.53;;;0.90;;
71965;SDS011;59836;52.132;5.442;2024-03-25T01:38:44;10.55;;;1.00;;
71965;SDS011;59836;52.132;5.442;2024-03-25T01:41:10;6.67;;;1.07;;
71965;SDS011;59836;52.132;5.442;2024-03-25T01:43:37;6.05;;;1.10;;
71965;SDS011;59836;52.132;5.442;2024-03-25T01:46:03;7.55;;;1.20;;
71965;SDS011;59836;52.132;5.442;2024-03-25T01:48:29;5.45;;;0.90;;
71965;SDS011;59836;52.132;5.442;2024-03-25T01:50:55;5.27;;;1.23;;
71965;SDS011;59836;52.132;5.442;2024-03-25T01:53:23;9.25;;;1.38;;
71965;SDS011;59836;52.132;5.442;2024-03-25T01:55:49;5.30;;;1.27;;
71965;SDS011;59836;52.132;5.442;2024-03-25T01:58:19;6.72;;;1.15;;
71965;SDS011;59836;52.132;5.442;2024-03-25T02:00:45;5.70;;;0.87;;
71965;SDS011;59836;52.132;5.442;2024-03-25T02:03:10;10.73;;;1.38;;
71965;SDS011;59836;52.132;5.442;2024-03-25T02:05:36;8.67;;;1.40;;
71965;SDS011;59836;52.132;5.442;2024-03-25T02:08:03;13.85;;;1.55;;
71965;SDS011;59836;52.132;5.442;2024-03-25T02:10:31;10.65;;;1.30;;
71965;SDS011;59836;52.132;5.442;2024-03-25T02:12:57;7.88;;;1.10;;
71965;SDS011;59836;52.132;5.442;2024-03-25T02:15:23;5.43;;;0.90;;
71965;SDS011;59836;52.132;5.442;2024-03-25T02:17:51;8.98;;;1.00;;
71965;SDS011;59836;52.132;5.442;2024-03-25T02:20:17;3.25;;;1.00;;
71965;SDS011;59836;52.132;5.442;2024-03-25T02:22:43;5.17;;;0.87;;
71965;SDS011;59836;52.132;5.442;2024-03-25T02:25:09;6.38;;;1.52;;
71965;SDS011;59836;52.132;5.442;2024-03-25T02:27:36;8.68;;;0.80;;
71965;SDS011;59836;52.132;5.442;2024-03-25T02:30:04;7.30;;;1.20;;
71965;SDS011;59836;52.132;5.442;2024-03-25T02:32:38;11.63;;;1.27;;
71965;SDS011;59836;52.132;5.442;2024-03-25T02:35:05;5.88;;;0.90;;
71965;SDS011;59836;52.132;5.442;2024-03-25T02:37:35;8.07;;;1.20;;
71965;SDS011;59836;52.132;5.442;2024-03-25T02:40:03;6.18;;;1.40;;
71965;SDS011;59836;52.132;5.442;2024-03-25T02:42:31;6.13;;;0.83;;
71965;SDS011;59836;52.132;5.442;2024-03-25T02:44:57;8.07;;;1.45;;
71965;SDS011;59836;52.132;5.442;2024-03-25T02:47:24;10.45;;;1.10;;
71965;SDS011;59836;52.132;5.442;2024-03-25T02:49:50;6.00;;;0.93;;
71965;SDS011;59836;52.132;5.442;2024-03-25T02:52:16;9.43;;;1.45;;
71965;SDS011;59836;52.132;5.442;2024-03-25T02:54:42;8.10;;;1.20;;
71965;SDS011;59836;52.132;5.442;2024-03-25T02:57:08;5.15;;;0.90;;
71965;SDS011;59836;52.132;5.442;2024-03-25T02:59:34;4.37;;;0.83;;
71965;SDS011;59836;52.132;5.442;2024-03-25T03:01:59;6.37;;;0.90;;
71965;SDS011;59836;52.132;5.442;2024-03-25T03:04:25;6.63;;;1.23;;
71965;SDS011;59836;52.132;5.442;2024-03-25T03:06:50;9.87;;;1.47;;
71965;SDS011;59836;52.132;5.442;2024-03-25T03:09:16;9.33;;;1.63;;
71965;SDS011;59836;52.132;5.442;2024-03-25T03:11:41;6.80;;;1.37;;
71965;SDS011;59836;52.132;5.442;2024-03-25T03:14:07;5.50;;;1.00;;
71965;SDS011;59836;52.132;5.442;2024-03-25T03:16:32;10.15;;;1.48;;
71965;SDS011;59836;52.132;5.442;2024-03-25T03:18:58;5.23;;;1.03;;
71965;SDS011;59836;52.132;5.442;2024-03-25T03:21:24;8.32;;;1.33;;
71965;SDS011;59836;52.132;5.442;2024-03-25T03:23:49;6.63;;;0.93;;
71965;SDS011;59836;52.132;5.442;2024-03-25T03:26:15;8.40;;;1.20;;
71965;SDS011;59836;52.132;5.442;2024-03-25T03:28:41;6.78;;;1.55;;
71965;SDS011;59836;52.132;5.442;2024-03-25T03:31:06;8.30;;;1.30;;
71965;SDS011;59836;52.132;5.442;2024-03-25T03:33:32;7.60;;;1.10;;
71965;SDS011;59836;52.132;5.442;2024-03-25T03:35:58;10.43;;;1.65;;
71965;SDS011;59836;52.132;5.442;2024-03-25T03:38:23;7.60;;;1.80;;
71965;SDS011;59836;52.132;5.442;2024-03-25T03:40:56;7.03;;;1.47;;
71965;SDS011;59836;52.132;5.442;2024-03-25T03:43:28;6.38;;;1.70;;
71965;SDS011;59836;52.132;5.442;2024-03-25T03:45:54;4.88;;;1.42;;
71965;SDS011;59836;52.132;5.442;2024-03-25T03:48:20;10.30;;;1.80;;
71965;SDS011;59836;52.132;5.442;2024-03-25T03:50:45;5.80;;;1.15;;
71965;SDS011;59836;52.132;5.442;2024-03-25T03:53:11;4.07;;;1.43;;
71965;SDS011;59836;52.132;5.442;2024-03-25T03:55:37;5.80;;;1.27;;
71965;SDS011;59836;52.132;5.442;2024-03-25T03:58:02;7.33;;;1.20;;
71965;SDS011;59836;52.132;5.442;2024-03-25T04:00:28;9.25;;;1.73;;
71965;SDS011;59836;52.132;5.442;2024-03-25T04:02:54;6.53;;;1.50;;
71965;SDS011;59836;52.132;5.442;2024-03-25T04:05:20;7.82;;;1.15;;
71965;SDS011;59836;52.132;5.442;2024-03-25T04:07:45;5.07;;;1.00;;
71965;SDS011;59836;52.132;5.442;2024-03-25T04:10:11;10.15;;;1.42;;
71965;SDS011;59836;52.132;5.442;2024-03-25T04:12:37;13.00;;;1.80;;
71965;SDS011;59836;52.132;5.442;2024-03-25T04:15:04;5.85;;;1.10;;
71965;SDS011;59836;52.132;5.442;2024-03-25T04:17:29;4.78;;;1.20;;
71965;SDS011;59836;52.132;5.442;2024-03-25T04:19:58;7.07;;;1.20;;
71965;SDS011;59836;52.132;5.442;2024-03-25T04:22:31;7.30;;;1.10;;
71965;SDS011;59836;52.132;5.442;2024-03-25T04:24:57;4.53;;;1.13;;
71965;SDS011;59836;52.132;5.442;2024-03-25T04:27:22;7.03;;;1.20;;
71965;SDS011;59836;52.132;5.442;2024-03-25T04:29:49;7.43;;;1.42;;
71965;SDS011;59836;52.132;5.442;2024-03-25T04:32:15;8.60;;;1.60;;
71965;SDS011;59836;52.132;5.442;2024-03-25T04:34:41;7.07;;;2.00;;
71965;SDS011;59836;52.132;5.442;2024-03-25T04:37:06;4.05;;;1.17;;
71965;SDS011;59836;52.132;5.442;2024-03-25T04:39:33;6.25;;;1.08;;
71965;SDS011;59836;52.132;5.442;2024-03-25T04:41:58;5.33;;;1.83;;
71965;SDS011;59836;52.132;5.442;2024-03-25T04:44:24;5.40;;;1.13;;
71965;SDS011;59836;52.132;5.442;2024-03-25T04:46:49;4.55;;;1.15;;
71965;SDS011;59836;52.132;5.442;2024-03-25T04:49:15;5.37;;;1.10;;
71965;SDS011;59836;52.132;5.442;2024-03-25T04:51:41;4.75;;;1.00;;
71965;SDS011;59836;52.132;5.442;2024-03-25T04:54:07;6.25;;;1.20;;
71965;SDS011;59836;52.132;5.442;2024-03-25T04:56:33;8.10;;;1.33;;
71965;SDS011;59836;52.132;5.442;2024-03-25T04:58:58;5.82;;;1.20;;
71965;SDS011;59836;52.132;5.442;2024-03-25T05:01:27;6.47;;;1.27;;
71965;SDS011;59836;52.132;5.442;2024-03-25T05:03:53;6.28;;;2.25;;
71965;SDS011;59836;52.132;5.442;2024-03-25T05:06:19;4.90;;;1.42;;
71965;SDS011;59836;52.132;5.442;2024-03-25T05:08:44;5.28;;;1.10;;
71965;SDS011;59836;52.132;5.442;2024-03-25T05:11:10;4.57;;;1.90;;
71965;SDS011;59836;52.132;5.442;2024-03-25T05:13:36;7.00;;;1.27;;
71965;SDS011;59836;52.132;5.442;2024-03-25T05:16:01;4.88;;;1.13;;
71965;SDS011;59836;52.132;5.442;2024-03-25T05:18:27;7.07;;;1.70;;
71965;SDS011;59836;52.132;5.442;2024-03-25T05:20:52;4.57;;;0.95;;
71965;SDS011;59836;52.132;5.442;2024-03-25T05:23:18;5.57;;;1.27;;
71965;SDS011;59836;52.132;5.442;2024-03-25T05:25:43;8.63;;;1.87;;
71965;SDS011;59836;52.132;5.442;2024-03-25T05:28:10;8.32;;;1.27;;
71965;SDS011;59836;52.132;5.442;2024-03-25T05:30:36;3.08;;;1.20;;
71965;SDS011;59836;52.132;5.442;2024-03-25T05:33:01;4.93;;;1.00;;
71965;SDS011;59836;52.132;5.442;2024-03-25T05:35:27;8.03;;;1.17;;
71965;SDS011;59836;52.132;5.442;2024-03-25T05:37:53;5.70;;;1.60;;
71965;SDS011;59836;52.132;5.442;2024-03-25T05:40:18;9.23;;;1.70;;
71965;SDS011;59836;52.132;5.442;2024-03-25T05:42:44;9.77;;;1.33;;
71965;SDS011;59836;52.132;5.442;2024-03-25T05:45:10;3.42;;;1.20;;
71965;SDS011;59836;52.132;5.442;2024-03-25T05:47:36;5.33;;;1.80;;
71965;SDS011;59836;52.132;5.442;2024-03-25T05:50:02;6.67;;;1.67;;
71965;SDS011;59836;52.132;5.442;2024-03-25T05:52:31;5.88;;;2.30;;
71965;SDS011;59836;52.132;5.442;2024-03-25T05:54:57;5.65;;;1.50;;
71965;SDS011;59836;52.132;5.442;2024-03-25T05:57:23;5.47;;;1.73;;
71965;SDS011;59836;52.132;5.442;2024-03-25T05:59:48;5.67;;;1.63;;
71965;SDS011;59836;52.132;5.442;2024-03-25T06:02:14;10.37;;;1.73;;
71965;SDS011;59836;52.132;5.442;2024-03-25T06:04:39;5.95;;;1.45;;
71965;SDS011;59836;52.132;5.442;2024-03-25T06:07:05;6.20;;;1.70;;
71965;SDS011;59836;52.132;5.442;2024-03-25T06:09:31;9.60;;;1.90;;
71965;SDS011;59836;52.132;5.442;2024-03-25T06:11:56;6.47;;;1.60;;
71965;SDS011;59836;52.132;5.442;2024-03-25T06:14:22;8.23;;;1.73;;
71965;SDS011;59836;52.132;5.442;2024-03-25T06:16:47;11.02;;;2.38;;
71965;SDS011;59836;52.132;5.442;2024-03-25T06:19:13;5.63;;;1.50;;
71965;SDS011;59836;52.132;5.442;2024-03-25T06:21:38;6.33;;;2.33;;
71965;SDS011;59836;52.132;5.442;2024-03-25T06:24:04;4.07;;;1.77;;
71965;SDS011;59836;52.132;5.442;2024-03-25T06:26:30;6.75;;;1.65;;
71965;SDS011;59836;52.132;5.442;2024-03-25T06:28:56;7.50;;;2.57;;
71965;SDS011;59836;52.132;5.442;2024-03-25T06:31:21;5.07;;;2.28;;
71965;SDS011;59836;52.132;5.442;2024-03-25T06:34:05;5.23;;;2.03;;
71965;SDS011;59836;52.132;5.442;2024-03-25T06:36:45;7.82;;;2.03;;
71965;SDS011;59836;52.132;5.442;2024-03-25T06:39:12;6.00;;;2.55;;
71965;SDS011;59836;52.132;5.442;2024-03-25T06:41:37;6.37;;;2.37;;
71965;SDS011;59836;52.132;5.442;2024-03-25T06:44:03;11.50;;;3.20;;
71965;SDS011;59836;52.132;5.442;2024-03-25T06:46:30;11.10;;;2.88;;
71965;SDS011;59836;52.132;5.442;2024-03-25T06:48:55;12.70;;;3.23;;
71965;SDS011;59836;52.132;5.442;2024-03-25T06:51:21;11.07;;;3.20;;
71965;SDS011;59836;52.132;5.442;2024-03-25T06:53:47;10.97;;;2.87;;
71965;SDS011;59836;52.132;5.442;2024-03-25T06:56:12;13.27;;;2.57;;
71965;SDS011;59836;52.132;5.442;2024-03-25T06:58:38;11.65;;;2.28;;
71965;SDS011;59836;52.132;5.442;2024-03-25T07:01:04;8.67;;;2.40;;
71965;SDS011;59836;52.132;5.442;2024-03-25T07:03:32;9.02;;;2.40;;
71965;SDS011;59836;52.132;5.442;2024-03-25T07:05:58;8.63;;;1.77;;
71965;SDS011;59836;52.132;5.442;2024-03-25T07:08:25;7.07;;;1.70;;
71965;SDS011;59836;52.132;5.442;2024-03-25T07:10:51;8.93;;;2.57;;
71965;SDS011;59836;52.132;5.442;2024-03-25T07:13:18;14.18;;;2.72;;
71965;SDS011;59836;52.132;5.442;2024-03-25T07:15:43;12.93;;;2.40;;
71965;SDS011;59836;52.132;5.442;2024-03-25T07:18:09;7.23;;;2.27;;
71965;SDS011;59836;52.132;5.442;2024-03-25T07:20:38;10.68;;;2.60;;
71965;SDS011;59836;52.132;5.442;2024-03-25T07:23:05;9.45;;;2.22;;
71965;SDS011;59836;52.132;5.442;2024-03-25T07:25:30;10.93;;;2.30;;
71965;SDS011;59836;52.132;5.442;2024-03-25T07:27:56;10.18;;;2.25;;
71965;SDS011;59836;52.132;5.442;2024-03-25T07:30:22;7.63;;;2.67;;
71965;SDS011;59836;52.132;5.442;2024-03-25T07:32:50;8.55;;;1.88;;
71965;SDS011;59836;52.132;5.442;2024-03-25T07:35:15;9.90;;;2.23;;
71965;SDS011;59836;52.132;5.442;2024-03-25T07:37:43;9.80;;;2.40;;
71965;SDS011;59836;52.132;5.442;2024-03-25T07:40:09;10.02;;;1.98;;
71965;SDS011;59836;52.132;5.442;2024-03-25T07:42:37;6.72;;;2.13;;
71965;SDS011;59836;52.132;5.442;2024-03-25T07:45:03;7.55;;;1.88;;
71965;SDS011;59836;52.132;5.442;2024-03-25T07:47:31;13.38;;;2.10;;
71965;SDS011;59836;52.132;5.442;2024-03-25T07:49:57;9.43;;;2.80;;
71965;SDS011;59836;52.132;5.442;2024-03-25T07:52:24;7.38;;;2.13;;
71965;SDS011;59836;52.132;5.442;2024-03-25T07:54:50;7.95;;;2.05;;
71965;SDS011;59836;52.132;5.442;2024-03-25T07:57:16;9.77;;;2.00;;
71965;SDS011;59836;52.132;5.442;2024-03-25T07:59:42;9.32;;;2.15;;
71965;SDS011;59836;52.132;5.442;2024-03-25T08:02:08;10.20;;;2.40;;
71965;SDS011;59836;52.132;5.442;2024-03-25T08:04:34;6.63;;;1.77;;
71965;SDS011;59836;52.132;5.442;2024-03-25T08:06:59;6.95;;;2.08;;
71965;SDS011;59836;52.132;5.442;2024-03-25T08:09:25;7.47;;;1.70;;
71965;SDS011;59836;52.132;5.442;2024-03-25T08:11:51;7.57;;;1.80;;
71965;SDS011;59836;52.132;5.442;2024-03-25T08:14:16;9.80;;;1.92;;
71965;SDS011;59836;52.132;5.442;2024-03-25T08:16:42;6.70;;;2.00;;
71965;SDS011;59836;52.132;5.442;2024-03-25T08:19:07;9.20;;;1.70;;
71965;SDS011;59836;52.132;5.442;2024-03-25T08:21:33;9.68;;;1.88;;
71965;SDS011;59836;52.132;5.442;2024-03-25T08:23:58;9.40;;;1.83;;
71965;SDS011;59836;52.132;5.442;2024-03-25T08:26:24;11.23;;;2.03;;
71965;SDS011;59836;52.132;5.442;2024-03-25T08:28:50;6.17;;;1.60;;
71965;SDS011;59836;52.132;5.442;2024-03-25T08:31:15;10.27;;;2.30;;
71965;SDS011;59836;52.132;5.442;2024-03-25T08:33:41;7.90;;;1.30;;
71965;SDS011;59836;52.132;5.442;2024-03-25T08:36:06;9.60;;;1.33;;
71965;SDS011;59836;52.132;5.442;2024-03-25T08:38:33;6.50;;;1.10;;
71965;SDS011;59836;52.132;5.442;2024-03-25T08:40:58;4.47;;;0.90;;
71965;SDS011;59836;52.132;5.442;2024-03-25T08:43:24;7.20;;;1.43;;
71965;SDS011;59836;52.132;5.442;2024-03-25T08:45:50;9.95;;;1.35;;
71965;SDS011;59836;52.132;5.442;2024-03-25T08:48:15;7.43;;;1.40;;
71965;SDS011;59836;52.132;5.442;2024-03-25T08:50:41;8.73;;;1.17;;
71965;SDS011;59836;52.132;5.442;2024-03-25T08:53:07;4.43;;;1.05;;
71965;SDS011;59836;52.132;5.442;2024-03-25T08:55:33;9.20;;;1.20;;
71965;SDS011;59836;52.132;5.442;2024-03-25T08:57:59;6.43;;;1.00;;
71965;SDS011;59836;52.132;5.442;2024-03-25T09:00:25;9.10;;;1.40;;
71965;SDS011;59836;52.132;5.442;2024-03-25T09:02:51;7.07;;;1.23;;
71965;SDS011;59836;52.132;5.442;2024-03-25T09:05:16;6.25;;;1.80;;
71965;SDS011;59836;52.132;5.442;2024-03-25T09:07:49;6.47;;;1.20;;
71965;SDS011;59836;52.132;5.442;2024-03-25T09:10:17;9.30;;;1.55;;
71965;SDS011;59836;52.132;5.442;2024-03-25T09:13:04;8.82;;;1.88;;
71965;SDS011;59836;52.132;5.442;2024-03-25T09:15:30;8.05;;;1.75;;
71965;SDS011;59836;52.132;5.442;2024-03-25T09:17:55;6.00;;;1.40;;
71965;SDS011;59836;52.132;5.442;2024-03-25T09:20:21;5.38;;;1.33;;
71965;SDS011;59836;52.132;5.442;2024-03-25T09:22:47;5.57;;;1.80;;
71965;SDS011;59836;52.132;5.442;2024-03-25T09:25:14;4.68;;;1.20;;
71965;SDS011;59836;52.132;5.442;2024-03-25T09:27:40;5.88;;;1.00;;
71965;SDS011;59836;52.132;5.442;2024-03-25T09:30:06;8.30;;;1.60;;
71965;SDS011;59836;52.132;5.442;2024-03-25T09:32:34;17.70;;;2.55;;
71965;SDS011;59836;52.132;5.442;2024-03-25T09:35:00;11.30;;;3.23;;
71965;SDS011;59836;52.132;5.442;2024-03-25T09:37:26;13.23;;;3.95;;
71965;SDS011;59836;52.132;5.442;2024-03-25T09:39:52;9.13;;;2.72;;
71965;SDS011;59836;52.132;5.442;2024-03-25T09:42:20;7.93;;;2.72;;
71965;SDS011;59836;52.132;5.442;2024-03-25T09:44:52;12.20;;;2.30;;
71965;SDS011;59836;52.132;5.442;2024-03-25T09:47:19;8.27;;;2.13;;
71965;SDS011;59836;52.132;5.442;2024-03-25T09:49:45;11.02;;;3.03;;
71965;SDS011;59836;52.132;5.442;2024-03-25T09:52:11;6.28;;;1.70;;
71965;SDS011;59836;52.132;5.442;2024-03-25T09:54:37;7.90;;;1.80;;
71965;SDS011;59836;52.132;5.442;2024-03-25T09:57:03;9.18;;;2.20;;
71965;SDS011;59836;52.132;5.442;2024-03-25T09:59:29;9.27;;;2.10;;
71965;SDS011;59836;52.132;5.442;2024-03-25T10:01:55;6.10;;;1.70;;
71965;SDS011;59836;52.132;5.442;2024-03-25T10:04:23;7.53;;;2.03;;
71965;SDS011;59836;52.132;5.442;2024-03-25T10:06:49;6.50;;;1.73;;
71965;SDS011;59836;52.132;5.442;2024-03-25T10:09:18;6.00;;;1.90;;
71965;SDS011;59836;52.132;5.442;2024-03-25T10:11:48;9.00;;;1.70;;
71965;SDS011;59836;52.132;5.442;2024-03-25T10:14:17;8.05;;;2.55;;
71965;SDS011;59836;52.132;5.442;2024-03-25T10:16:44;10.70;;;1.90;;
71965;SDS011;59836;52.132;5.442;2024-03-25T10:19:10;8.63;;;2.05;;
71965;SDS011;59836;52.132;5.442;2024-03-25T10:21:35;6.18;;;1.70;;
71965;SDS011;59836;52.132;5.442;2024-03-25T10:24:04;7.37;;;2.00;;
71965;SDS011;59836;52.132;5.442;2024-03-25T10:26:30;9.15;;;2.53;;
71965;SDS011;59836;52.132;5.442;2024-03-25T10:29:00;10.27;;;1.92;;
71965;SDS011;59836;52.132;5.442;2024-03-25T10:31:26;10.73;;;2.35;;
71965;SDS011;59836;52.132;5.442;2024-03-25T10:33:52;6.82;;;1.67;;
71965;SDS011;59836;52.132;5.442;2024-03-25T10:36:19;8.93;;;2.20;;
71965;SDS011;59836;52.132;5.442;2024-03-25T10:38:46;8.30;;;2.10;;
71965;SDS011;59836;52.132;5.442;2024-03-25T10:41:16;8.15;;;3.08;;
71965;SDS011;59836;52.132;5.442;2024-03-25T10:43:44;8.60;;;2.63;;
71965;SDS011;59836;52.132;5.442;2024-03-25T10:46:12;7.80;;;2.63;;
71965;SDS011;59836;52.132;5.442;2024-03-25T10:48:42;8.30;;;2.15;;
71965;SDS011;59836;52.132;5.442;2024-03-25T10:51:17;5.22;;;2.13;;
71965;SDS011;59836;52.132;5.442;2024-03-25T10:53:49;7.30;;;2.47;;
71965;SDS011;59836;52.132;5.442;2024-03-25T10:56:20;7.40;;;1.90;;
71965;SDS011;59836;52.132;5.442;2024-03-25T10:58:50;6.82;;;2.03;;
71965;SDS011;59836;52.132;5.442;2024-03-25T11:01:18;6.65;;;3.25;;
71965;SDS011;59836;52.132;5.442;2024-03-25T11:03:48;7.53;;;2.00;;
71965;SDS011;59836;52.132;5.442;2024-03-25T11:06:15;6.55;;;1.98;;
71965;SDS011;59836;52.132;5.442;2024-03-25T11:08:42;6.33;;;2.17;;
71965;SDS011;59836;52.132;5.442;2024-03-25T11:11:12;10.40;;;2.20;;
71965;SDS011;59836;52.132;5.442;2024-03-25T11:13:38;10.45;;;2.80;;
71965;SDS011;59836;52.132;5.442;2024-03-25T11:16:04;7.88;;;2.00;;
71965;SDS011;59836;52.132;5.442;2024-03-25T11:18:31;5.07;;;2.17;;
71965;SDS011;59836;52.132;5.442;2024-03-25T11:21:05;4.87;;;1.63;;
71965;SDS011;59836;52.132;5.442;2024-03-25T11:23:51;11.50;;;2.53;;
71965;SDS011;59836;52.132;5.442;2024-03-25T11:28:46;9.23;;;3.25;;
71965;SDS011;59836;52.132;5.442;2024-03-25T11:31:12;4.73;;;2.00;;
71965;SDS011;59836;52.132;5.442;2024-03-25T11:33:41;6.22;;;2.58;;
71965;SDS011;59836;52.132;5.442;2024-03-25T11:36:06;7.00;;;2.20;;
71965;SDS011;59836;52.132;5.442;2024-03-25T11:38:32;6.57;;;1.80;;
71965;SDS011;59836;52.132;5.442;2024-03-25T11:40:58;5.00;;;2.00;;
71965;SDS011;59836;52.132;5.442;2024-03-25T11:43:24;6.63;;;2.33;;
71965;SDS011;59836;52.132;5.442;2024-03-25T11:45:50;7.85;;;2.35;;
71965;SDS011;59836;52.132;5.442;2024-03-25T11:48:16;3.13;;;2.27;;
71965;SDS011;59836;52.132;5.442;2024-03-25T11:50:44;6.45;;;2.33;;
71965;SDS011;59836;52.132;5.442;2024-03-25T11:53:12;5.10;;;2.17;;
71965;SDS011;59836;52.132;5.442;2024-03-25T11:55:39;6.17;;;2.27;;
71965;SDS011;59836;52.132;5.442;2024-03-25T11:58:05;4.18;;;2.17;;
71965;SDS011;59836;52.132;5.442;2024-03-25T12:00:32;8.20;;;2.38;;
71965;SDS011;59836;52.132;5.442;2024-03-25T12:02:58;5.10;;;2.77;;
71965;SDS011;59836;52.132;5.442;2024-03-25T12:05:24;5.37;;;2.33;;
71965;SDS011;59836;52.132;5.442;2024-03-25T12:07:50;4.75;;;2.70;;
71965;SDS011;59836;52.132;5.442;2024-03-25T12:10:16;8.07;;;2.90;;
71965;SDS011;59836;52.132;5.442;2024-03-25T12:13:00;4.67;;;2.33;;
71965;SDS011;59836;52.132;5.442;2024-03-25T12:15:26;5.35;;;3.03;;
71965;SDS011;59836;52.132;5.442;2024-03-25T12:17:52;8.10;;;2.90;;
71965;SDS011;59836;52.132;5.442;2024-03-25T12:20:17;7.78;;;2.90;;
71965;SDS011;59836;52.132;5.442;2024-03-25T12:22:44;6.47;;;2.75;;
71965;SDS011;59836;52.132;5.442;2024-03-25T12:25:10;6.10;;;2.50;;
71965;SDS011;59836;52.132;5.442;2024-03-25T12:27:36;8.63;;;3.43;;
71965;SDS011;59836;52.132;5.442;2024-03-25T12:30:07;3.40;;;2.70;;
71965;SDS011;59836;52.132;5.442;2024-03-25T12:32:41;6.97;;;2.90;;
71965;SDS011;59836;52.132;5.442;2024-03-25T12:35:11;6.72;;;3.33;;
71965;SDS011;59836;52.132;5.442;2024-03-25T12:37:40;5.35;;;2.67;;
71965;SDS011;59836;52.132;5.442;2024-03-25T12:40:06;5.23;;;3.00;;
71965;SDS011;59836;52.132;5.442;2024-03-25T12:42:34;6.68;;;2.67;;
71965;SDS011;59836;52.132;5.442;2024-03-25T12:45:00;3.72;;;2.53;;
71965;SDS011;59836;52.132;5.442;2024-03-25T12:47:26;4.63;;;2.43;;
71965;SDS011;59836;52.132;5.442;2024-03-25T12:49:52;3.95;;;2.40;;
71965;SDS011;59836;52.132;5.442;2024-03-25T12:52:18;4.43;;;2.50;;
71965;SDS011;59836;52.132;5.442;2024-03-25T12:54:43;7.27;;;3.13;;
71965;SDS011;59836;52.132;5.442;2024-03-25T12:57:11;6.30;;;2.35;;
71965;SDS011;59836;52.132;5.442;2024-03-25T12:59:37;4.30;;;2.67;;
71965;SDS011;59836;52.132;5.442;2024-03-25T13:02:03;5.33;;;2.17;;
71965;SDS011;59836;52.132;5.442;2024-03-25T13:04:28;4.00;;;2.45;;
71965;SDS011;59836;52.132;5.442;2024-03-25T13:06:54;6.83;;;2.80;;
71965;SDS011;59836;52.132;5.442;2024-03-25T13:09:20;4.57;;;2.65;;
71965;SDS011;59836;52.132;5.442;2024-03-25T13:11:45;6.17;;;2.90;;
71965;SDS011;59836;52.132;5.442;2024-03-25T13:14:12;7.25;;;2.67;;
71965;SDS011;59836;52.132;5.442;2024-03-25T13:16:38;6.90;;;3.00;;
71965;SDS011;59836;52.132;5.442;2024-03-25T13:19:04;4.47;;;2.50;;
71965;SDS011;59836;52.132;5.442;2024-03-25T13:21:30;8.35;;;2.88;;
71965;SDS011;59836;52.132;5.442;2024-03-25T13:23:56;5.37;;;2.20;;
71965;SDS011;59836;52.132;5.442;2024-03-25T13:26:22;7.15;;;2.60;;
71965;SDS011;59836;52.132;5.442;2024-03-25T13:28:48;4.63;;;1.87;;
71965;SDS011;59836;52.132;5.442;2024-03-25T13:31:13;7.10;;;2.58;;
71965;SDS011;59836;52.132;5.442;2024-03-25T13:33:39;4.57;;;2.00;;
71965;SDS011;59836;52.132;5.442;2024-03-25T13:36:06;7.53;;;2.63;;
71965;SDS011;59836;52.132;5.442;2024-03-25T13:38:32;5.00;;;2.17;;
71965;SDS011;59836;52.132;5.442;2024-03-25T13:41:02;6.45;;;2.30;;
71965;SDS011;59836;52.132;5.442;2024-03-25T13:43:28;6.53;;;2.20;;
71965;SDS011;59836;52.132;5.442;2024-03-25T13:45:54;4.47;;;2.42;;
71965;SDS011;59836;52.132;5.442;2024-03-25T13:48:19;4.57;;;1.93;;
71965;SDS011;59836;52.132;5.442;2024-03-25T13:50:45;5.13;;;2.60;;
71965;SDS011;59836;52.132;5.442;2024-03-25T13:53:11;5.68;;;2.30;;
71965;SDS011;59836;52.132;5.442;2024-03-25T13:55:36;8.60;;;2.30;;
71965;SDS011;59836;52.132;5.442;2024-03-25T13:58:02;4.77;;;1.80;;
71965;SDS011;59836;52.132;5.442;2024-03-25T14:00:28;5.57;;;2.30;;
71965;SDS011;59836;52.132;5.442;2024-03-25T14:02:54;4.75;;;2.30;;
71965;SDS011;59836;52.132;5.442;2024-03-25T14:05:20;3.58;;;2.20;;
71965;SDS011;59836;52.132;5.442;2024-03-25T14:07:48;4.07;;;2.30;;
71965;SDS011;59836;52.132;5.442;2024-03-25T14:10:15;4.40;;;2.40;;
71965;SDS011;59836;52.132;5.442;2024-03-25T14:12:40;4.47;;;2.35;;
71965;SDS011;59836;52.132;5.442;2024-03-25T14:15:06;4.27;;;2.03;;
71965;SDS011;59836;52.132;5.442;2024-03-25T14:17:32;4.28;;;2.08;;
71965;SDS011;59836;52.132;5.442;2024-03-25T14:19:58;5.03;;;1.87;;
71965;SDS011;59836;52.132;5.442;2024-03-25T14:22:24;3.88;;;1.70;;
71965;SDS011;59836;52.132;5.442;2024-03-25T14:24:49;5.13;;;1.80;;
71965;SDS011;59836;52.132;5.442;2024-03-25T14:27:17;4.15;;;2.10;;
71965;SDS011;59836;52.132;5.442;2024-03-25T14:29:43;4.00;;;2.10;;
71965;SDS011;59836;52.132;5.442;2024-03-25T14:32:08;4.23;;;2.00;;
71965;SDS011;59836;52.132;5.442;2024-03-25T14:34:34;3.87;;;1.90;;
71965;SDS011;59836;52.132;5.442;2024-03-25T14:37:00;3.78;;;1.90;;
71965;SDS011;59836;52.132;5.442;2024-03-25T14:39:27;6.72;;;2.50;;
71965;SDS011;59836;52.132;5.442;2024-03-25T14:41:53;3.50;;;1.83;;
71965;SDS011;59836;52.132;5.442;2024-03-25T14:44:18;5.10;;;2.35;;